createdAt,value
2022-08-10T00:00:35.263Z,75.49
2022-08-10T00:01:35.367Z,75.99
2022-08-10T00:02:35.551Z,75.79
2022-08-10T00:03:35.270Z,75.99
2022-08-10T00:04:35.230Z,75.59
2022-08-10T00:05:43.546Z,75.69
2022-08-10T00:06:36.215Z,75.59
2022-08-10T00:07:35.212Z,75.79
2022-08-10T00:08:35.234Z,76.40
2022-08-10T00:09:50.704Z,76.20
2022-08-10T00:10:36.191Z,75.79
2022-08-10T00:11:35.173Z,76.50
2022-08-10T00:12:54.587Z,75.79
2022-08-10T00:13:36.197Z,75.79
2022-08-10T00:14:35.155Z,76.50
2022-08-10T00:15:44.359Z,75.69
2022-08-10T00:16:36.143Z,76.50
2022-08-10T00:17:35.142Z,76.40
2022-08-10T00:18:36.410Z,75.89
2022-08-10T00:19:35.119Z,76.09
2022-08-10T00:20:36.125Z,75.79
2022-08-10T00:21:35.100Z,76.50
2022-08-10T00:22:35.392Z,76.50
2022-08-10T00:23:35.090Z,75.69
2022-08-10T00:24:35.103Z,76.23
2022-08-10T00:25:35.073Z,76.43
2022-08-10T00:27:57.933Z,77.65
2022-08-10T00:27:57.957Z,76.74
2022-08-10T00:28:36.050Z,77.38
2022-08-10T00:29:35.068Z,77.45
2022-08-10T00:30:35.054Z,77.59
2022-08-10T00:31:58.355Z,78.13
2022-08-10T00:32:36.240Z,78.53
2022-08-10T00:33:35.141Z,78.44
2022-08-10T00:34:35.013Z,78.64
2022-08-10T00:35:35.006Z,78.13
2022-08-10T00:36:34.992Z,78.44
2022-08-10T00:37:34.998Z,77.93
2022-08-10T00:38:35.008Z,78.64
2022-08-10T00:39:36.354Z,78.44
2022-08-10T00:40:37.944Z,78.74
2022-08-10T00:41:34.952Z,78.64
2022-08-10T00:42:35.193Z,78.74
2022-08-10T00:43:34.974Z,79.14
2022-08-10T00:44:34.925Z,79.04
2022-08-10T00:45:34.939Z,79.38
2022-08-10T00:46:34.921Z,79.49
2022-08-10T00:47:37.257Z,79.14
2022-08-10T00:48:34.901Z,79.04
2022-08-10T00:49:34.953Z,78.78
2022-08-10T00:50:34.889Z,78.53
2022-08-10T00:51:43.072Z,78.23
2022-08-10T00:52:36.128Z,78.44
2022-08-10T00:53:34.865Z,78.64
2022-08-10T00:54:34.885Z,79.04
2022-08-10T00:57:15.246Z,79.18
2022-08-10T00:57:16.514Z,79.45
2022-08-10T00:57:35.835Z,79.55
2022-08-10T00:58:34.826Z,79.69
2022-08-10T00:59:34.864Z,80.10
2022-08-10T01:00:35.809Z,79.99
2022-08-10T01:02:11.241Z,79.59
2022-08-10T01:02:36.137Z,79.49
2022-08-10T01:04:58.714Z,80.03
2022-08-10T01:04:59.241Z,80.13
2022-08-10T01:05:35.778Z,80.33
2022-08-10T01:06:35.775Z,80.74
2022-08-10T01:07:34.759Z,80.84
2022-08-10T01:08:34.744Z,80.84
2022-08-10T01:09:34.776Z,80.64
2022-08-10T01:10:34.736Z,80.74
2022-08-10T01:12:39.650Z,80.44
2022-08-10T01:12:47.676Z,80.30
2022-08-10T01:13:35.716Z,80.19
2022-08-10T01:14:34.733Z,79.79
2022-08-10T01:15:34.699Z,79.45
2022-08-10T01:16:34.687Z,79.18
2022-08-10T01:17:50.475Z,79.04
2022-08-10T01:18:37.848Z,78.64
2022-08-10T01:19:35.693Z,78.67
2022-08-10T01:20:34.677Z,78.88
2022-08-10T01:21:34.664Z,79.18
2022-08-10T01:22:34.827Z,78.84
2022-08-10T01:23:34.634Z,78.88
2022-08-10T01:24:34.648Z,79.08
2022-08-10T01:25:34.647Z,79.28
2022-08-10T01:26:37.202Z,79.28
2022-08-10T01:27:34.601Z,79.12
2022-08-10T01:28:34.630Z,79.83
2022-08-10T01:29:34.588Z,80.03
2022-08-10T01:30:34.626Z,80.03
2022-08-10T01:31:34.580Z,80.47
2022-08-10T01:33:06.502Z,80.24
2022-08-10T01:33:57.998Z,80.37
2022-08-10T01:34:35.547Z,80.33
2022-08-10T01:35:34.537Z,80.88
2022-08-10T01:36:34.535Z,81.12
2022-08-10T01:37:34.526Z,81.19
2022-08-10T01:38:34.560Z,81.70
2022-08-10T01:39:34.610Z,81.84
2022-08-10T01:40:34.505Z,81.70
2022-08-10T01:41:45.928Z,81.53
2022-08-10T01:42:35.747Z,81.19
2022-08-10T01:43:34.525Z,81.12
2022-08-10T01:44:34.472Z,81.39
2022-08-10T01:45:44.732Z,81.19
2022-08-10T01:46:35.455Z,81.39
2022-08-10T01:47:34.450Z,81.39
2022-08-10T01:48:34.461Z,81.90
2022-08-10T01:49:34.426Z,81.39
2022-08-10T01:50:34.427Z,81.09
2022-08-10T01:51:35.426Z,81.25
2022-08-10T01:52:34.602Z,80.84
2022-08-10T01:53:41.218Z,80.54
2022-08-10T01:54:35.382Z,80.54
2022-08-10T01:55:35.385Z,80.54
2022-08-10T01:56:34.378Z,80.13
2022-08-10T01:57:34.373Z,80.33
2022-08-10T01:58:34.391Z,80.24
2022-08-10T01:59:34.354Z,80.03
2022-08-10T02:00:34.348Z,80.24
2022-08-10T02:01:34.365Z,80.33
2022-08-10T02:02:34.551Z,80.68
2022-08-10T02:03:34.361Z,80.44
2022-08-10T02:04:35.333Z,80.78
2022-08-10T02:05:34.311Z,80.94
2022-08-10T02:06:34.299Z,81.09
2022-08-10T02:07:34.288Z,81.19
2022-08-10T02:08:34.283Z,81.19
2022-08-10T02:09:34.297Z,81.39
2022-08-10T02:10:34.270Z,81.09
2022-08-10T02:11:55.847Z,81.39
2022-08-10T02:12:35.410Z,81.59
2022-08-10T02:13:34.251Z,81.59
2022-08-10T02:14:34.622Z,81.19
2022-08-10T02:15:34.231Z,81.09
2022-08-10T02:16:34.222Z,81.09
2022-08-10T02:18:00.466Z,80.58
2022-08-10T02:18:35.212Z,80.58
2022-08-10T02:19:34.229Z,80.68
2022-08-10T02:20:34.198Z,80.37
2022-08-10T02:21:34.187Z,81.16
2022-08-10T02:22:38.173Z,81.93
2022-08-10T02:23:35.169Z,82.48
2022-08-10T02:24:34.192Z,82.79
2022-08-10T02:25:42.040Z,82.79
2022-08-10T02:26:35.153Z,82.79
2022-08-10T02:27:34.142Z,82.79
2022-08-10T02:28:34.135Z,82.38
2022-08-10T02:29:34.157Z,82.38
2022-08-10T02:30:34.123Z,83.09
2022-08-10T02:31:34.108Z,82.52
2022-08-10T02:32:36.498Z,82.68
2022-08-10T02:33:37.282Z,82.79
2022-08-10T02:34:34.096Z,83.50
2022-08-10T02:35:55.438Z,82.21
2022-08-10T02:36:35.071Z,83.50
2022-08-10T02:37:34.059Z,82.68
2022-08-10T02:38:58.963Z,82.99
2022-08-10T02:39:35.105Z,83.54
2022-08-10T02:45:01.976Z,84.05
2022-08-10T02:45:16.175Z,83.74
2022-08-10T02:45:20.243Z,84.59
2022-08-10T02:45:23.641Z,84.19
2022-08-10T02:45:29.330Z,84.90
2022-08-10T02:45:36.241Z,84.94
2022-08-10T02:46:33.989Z,84.80
2022-08-10T02:47:50.768Z,84.39
2022-08-10T02:48:34.974Z,83.68
2022-08-10T02:49:33.965Z,83.84
2022-08-10T02:50:34.009Z,84.09
2022-08-10T02:52:08.190Z,83.68
2022-08-10T02:52:35.135Z,83.74
2022-08-10T02:53:54.743Z,83.54
2022-08-10T02:54:34.928Z,83.84
2022-08-10T02:55:33.947Z,82.82
2022-08-10T02:56:33.915Z,82.82
2022-08-10T02:57:33.908Z,83.23
2022-08-10T02:58:33.897Z,82.73
2022-08-10T02:59:40.057Z,82.93
2022-08-10T03:00:34.907Z,83.60
2022-08-10T03:01:33.995Z,83.03
2022-08-10T03:02:33.954Z,82.79
2022-08-10T03:03:33.861Z,82.52
2022-08-10T03:04:54.957Z,82.42
2022-08-10T03:05:34.868Z,83.13
2022-08-10T03:06:33.833Z,83.03
2022-08-10T03:07:43.698Z,82.93
2022-08-10T03:08:34.819Z,83.34
2022-08-10T03:09:33.812Z,83.03
2022-08-10T03:10:33.836Z,83.03
2022-08-10T03:12:35.426Z,83.68
2022-08-10T03:12:36.790Z,83.68
2022-08-10T03:13:33.782Z,83.89
2022-08-10T03:14:33.797Z,83.74
2022-08-10T03:15:33.764Z,83.68
2022-08-10T03:16:33.755Z,83.84
2022-08-10T03:17:33.750Z,83.74
2022-08-10T03:18:33.736Z,83.74
2022-08-10T03:20:35.157Z,83.78
2022-08-10T03:20:39.551Z,83.78
2022-08-10T03:21:34.715Z,83.78
2022-08-10T03:22:33.848Z,83.37
2022-08-10T03:23:33.707Z,83.48
2022-08-10T03:24:33.711Z,83.74
2022-08-10T03:25:34.685Z,83.89
2022-08-10T03:26:33.678Z,83.89
2022-08-10T03:27:33.673Z,83.31
2022-08-10T03:28:33.669Z,83.68
2022-08-10T03:30:28.319Z,83.89
2022-08-10T03:30:34.764Z,83.21
2022-08-10T03:31:34.685Z,84.23
2022-08-10T03:32:34.778Z,84.43
2022-08-10T03:33:33.627Z,84.12
2022-08-10T03:34:33.916Z,84.84
2022-08-10T03:35:33.632Z,84.78
2022-08-10T03:36:43.212Z,84.98
2022-08-10T03:37:35.598Z,84.94
2022-08-10T03:38:33.591Z,85.19
2022-08-10T03:39:33.625Z,85.25
2022-08-10T03:40:45.661Z,86.21
2022-08-10T03:41:35.588Z,86.10
2022-08-10T03:42:33.644Z,86.24
2022-08-10T03:43:33.551Z,86.00
2022-08-10T03:44:33.547Z,86.10
2022-08-10T03:45:55.180Z,86.00
2022-08-10T03:46:34.532Z,86.24
2022-08-10T03:47:33.522Z,86.15
2022-08-10T03:48:48.682Z,86.00
2022-08-10T03:49:34.508Z,85.90
2022-08-10T03:50:50.911Z,85.80
2022-08-10T03:51:34.493Z,86.00
2022-08-10T03:52:33.481Z,85.49
2022-08-10T03:54:02.880Z,86.21
2022-08-10T03:54:34.465Z,85.96
2022-08-10T03:56:29.412Z,85.49
2022-08-10T03:56:34.457Z,85.28
2022-08-10T03:57:33.457Z,85.19
2022-08-10T03:58:33.433Z,85.28
2022-08-10T03:59:33.426Z,85.19
2022-08-10T04:00:33.507Z,85.39
2022-08-10T04:02:43.271Z,86.16
2022-08-10T04:02:44.496Z,85.60
2022-08-10T04:03:34.392Z,85.39
2022-08-10T04:04:33.386Z,86.10
2022-08-10T04:05:38.599Z,84.98
2022-08-10T04:06:34.369Z,85.19
2022-08-10T04:07:33.362Z,85.25
2022-08-10T04:08:33.355Z,84.98
2022-08-10T04:09:54.045Z,86.00
2022-08-10T04:10:34.340Z,86.00
2022-08-10T04:11:33.347Z,86.00
2022-08-10T04:12:33.323Z,86.00
2022-08-10T04:13:33.318Z,85.90
2022-08-10T04:14:37.921Z,86.41
2022-08-10T04:15:34.298Z,86.00
2022-08-10T04:16:33.308Z,86.24
2022-08-10T04:18:03.939Z,86.15
2022-08-10T04:18:34.278Z,86.45
2022-08-10T04:19:33.302Z,86.55
2022-08-10T04:20:34.966Z,86.04
2022-08-10T04:21:33.264Z,86.35
2022-08-10T04:22:33.247Z,86.45
2022-08-10T04:23:33.245Z,86.35
2022-08-10T04:24:33.365Z,86.61
2022-08-10T04:25:33.258Z,86.35
2022-08-10T04:26:33.223Z,86.35
2022-08-10T04:27:33.217Z,85.80
2022-08-10T04:28:33.209Z,86.10
2022-08-10T04:29:33.199Z,86.21
2022-08-10T04:30:33.215Z,85.25
2022-08-10T04:31:33.180Z,84.84
2022-08-10T04:32:33.171Z,85.25
2022-08-10T04:33:33.171Z,84.74
2022-08-10T04:34:33.150Z,84.50
2022-08-10T04:35:34.173Z,84.70
2022-08-10T04:36:33.137Z,84.45
2022-08-10T04:37:33.133Z,82.79
2022-08-10T04:38:33.127Z,81.53
2022-08-10T04:39:33.150Z,80.33
2022-08-10T04:40:33.135Z,78.88
2022-08-10T04:41:33.100Z,77.42
2022-08-10T04:42:33.096Z,76.84
2022-08-10T04:43:33.086Z,75.89
2022-08-10T04:44:33.080Z,74.81
2022-08-10T04:45:50.036Z,73.05
2022-08-10T04:46:42.475Z,73.83
2022-08-10T04:47:51.120Z,74.33
2022-08-10T04:48:43.640Z,74.64
2022-08-10T04:49:54.616Z,74.51
2022-08-10T04:50:34.057Z,73.46
2022-08-10T04:51:33.019Z,73.46
2022-08-10T04:52:33.068Z,74.00
2022-08-10T04:53:33.011Z,74.40
2022-08-10T04:54:33.001Z,74.74
2022-08-10T04:55:33.016Z,74.54
2022-08-10T04:56:32.983Z,74.54
2022-08-10T04:57:32.978Z,74.51
2022-08-10T04:58:32.989Z,74.27
2022-08-10T04:59:32.961Z,73.59
2022-08-10T05:00:33.021Z,71.87
2022-08-10T05:02:12.142Z,69.01
2022-08-10T05:02:34.052Z,70.76
2022-08-10T05:03:32.930Z,72.41
2022-08-10T05:04:33.127Z,72.61
2022-08-10T05:05:33.948Z,72.38
2022-08-10T05:06:32.910Z,71.64
2022-08-10T05:07:32.902Z,71.97
2022-08-10T05:08:33.898Z,72.68
2022-08-10T05:09:32.889Z,72.68
2022-08-10T05:10:32.903Z,73.02
2022-08-10T05:11:32.873Z,70.09
2022-08-10T05:12:36.060Z,68.01
2022-08-10T05:13:32.863Z,66.60
2022-08-10T05:14:32.850Z,65.90
2022-08-10T05:15:32.867Z,65.26
2022-08-10T05:16:32.833Z,65.80
2022-08-10T05:17:32.824Z,65.56
2022-08-10T05:18:32.817Z,63.73
2022-08-10T05:20:04.905Z,63.82
2022-08-10T05:20:33.825Z,63.56
2022-08-10T05:22:03.175Z,65.94
2022-08-10T05:22:33.791Z,63.29
2022-08-10T05:23:32.776Z,63.33
2022-08-10T05:24:32.771Z,61.47
2022-08-10T05:25:37.532Z,60.47
2022-08-10T05:26:33.753Z,61.60
2022-08-10T05:27:32.752Z,61.30
2022-08-10T05:28:32.745Z,61.46
2022-08-10T05:29:32.734Z,64.79
2022-08-10T05:30:32.765Z,67.54
2022-08-10T05:31:32.719Z,69.92
2022-08-10T05:32:34.342Z,70.02
2022-08-10T05:33:33.703Z,70.32
2022-08-10T05:34:32.695Z,70.32
2022-08-10T05:35:56.940Z,69.28
2022-08-10T05:36:33.676Z,69.18
2022-08-10T05:38:13.312Z,70.62
2022-08-10T05:38:33.663Z,69.92
2022-08-10T05:39:32.679Z,66.71
2022-08-10T05:40:32.676Z,68.57
2022-08-10T05:41:32.642Z,71.10
2022-08-10T05:42:32.692Z,70.93
2022-08-10T05:43:32.627Z,69.15
2022-08-10T05:44:32.614Z,70.02
2022-08-10T05:45:32.645Z,70.62
2022-08-10T05:46:32.600Z,68.58
2022-08-10T05:48:54.828Z,67.50
2022-08-10T05:48:57.921Z,69.08
2022-08-10T05:49:33.582Z,69.95
2022-08-10T05:50:32.597Z,66.77
2022-08-10T05:51:32.560Z,65.10
2022-08-10T05:52:32.617Z,62.93
2022-08-10T05:54:01.984Z,65.13
2022-08-10T05:54:33.545Z,66.00
2022-08-10T05:55:32.573Z,67.21
2022-08-10T05:56:57.160Z,65.16
2022-08-10T05:57:33.523Z,67.14
2022-08-10T05:58:32.517Z,67.44
2022-08-10T06:00:32.782Z,66.80
2022-08-10T06:00:39.844Z,66.94
2022-08-10T06:01:33.584Z,67.88
2022-08-10T06:02:35.306Z,69.62
2022-08-10T06:03:34.479Z,69.01
2022-08-10T06:04:32.474Z,71.57
2022-08-10T06:05:32.466Z,73.08
2022-08-10T06:06:32.477Z,73.72
2022-08-10T06:07:32.446Z,74.29
2022-08-10T06:08:32.441Z,73.75
2022-08-10T06:09:32.432Z,73.42
2022-08-10T06:10:35.312Z,71.87
2022-08-10T06:12:24.437Z,71.94
2022-08-10T06:12:53.307Z,73.55
2022-08-10T06:13:43.592Z,73.25
2022-08-10T06:14:33.392Z,72.81
2022-08-10T06:15:51.943Z,74.19
2022-08-10T06:16:33.410Z,76.14
2022-08-10T06:17:32.382Z,72.67
2022-08-10T06:18:32.368Z,70.90
2022-08-10T06:19:32.361Z,70.39
2022-08-10T06:20:35.846Z,70.26
2022-08-10T06:21:33.484Z,70.43
2022-08-10T06:22:32.448Z,68.31
2022-08-10T06:23:32.336Z,69.05
2022-08-10T06:24:32.326Z,70.12
2022-08-10T06:26:10.103Z,69.89
2022-08-10T06:26:34.334Z,68.95
2022-08-10T06:27:34.311Z,66.71
2022-08-10T06:28:32.295Z,67.08
2022-08-10T06:29:32.287Z,66.81
2022-08-10T06:30:32.284Z,66.84
2022-08-10T06:31:46.680Z,66.51
2022-08-10T06:32:34.399Z,67.74
2022-08-10T06:33:32.259Z,66.74
2022-08-10T06:34:32.248Z,66.94
2022-08-10T06:35:32.247Z,65.84
2022-08-10T06:36:34.043Z,67.74
2022-08-10T06:37:32.233Z,67.51
2022-08-10T06:38:32.218Z,66.81
2022-08-10T06:39:34.862Z,68.32
2022-08-10T06:40:33.209Z,66.51
2022-08-10T06:41:57.851Z,67.21
2022-08-10T06:42:33.186Z,66.78
2022-08-10T06:43:32.184Z,65.77
2022-08-10T06:44:32.176Z,65.77
2022-08-10T06:45:32.169Z,65.27
2022-08-10T06:46:32.194Z,66.11
2022-08-10T06:47:32.159Z,66.11
2022-08-10T06:48:32.150Z,64.54
2022-08-10T06:49:32.139Z,67.38
2022-08-10T06:50:35.065Z,69.15
2022-08-10T06:51:33.152Z,68.72
2022-08-10T06:52:32.120Z,67.85
2022-08-10T06:53:51.992Z,65.18
2022-08-10T06:54:33.102Z,65.75
2022-08-10T06:55:39.873Z,63.54
2022-08-10T06:56:38.015Z,62.97
2022-08-10T06:57:33.075Z,63.57
2022-08-10T06:58:32.088Z,63.47
2022-08-10T06:59:32.062Z,64.28
2022-08-10T07:00:32.716Z,62.77
2022-08-10T07:01:32.116Z,63.10
2022-08-10T07:02:32.061Z,63.10
2022-08-10T07:03:32.033Z,63.50
2022-08-10T07:04:33.678Z,62.43
2022-08-10T07:05:33.017Z,62.90
2022-08-10T07:06:32.037Z,62.30
2022-08-10T07:07:32.001Z,62.07
2022-08-10T07:08:31.994Z,61.17
2022-08-10T07:09:31.991Z,62.00
2022-08-10T07:10:46.092Z,62.17
2022-08-10T07:11:33.000Z,62.07
2022-08-10T07:12:32.083Z,60.77
2022-08-10T07:14:17.237Z,60.89
2022-08-10T07:14:32.946Z,60.66
2022-08-10T07:15:59.396Z,60.47
2022-08-10T07:16:32.955Z,60.74
2022-08-10T07:17:35.894Z,61.14
2022-08-10T07:18:32.908Z,60.24
2022-08-10T07:19:31.910Z,60.47
2022-08-10T07:20:31.899Z,60.84
2022-08-10T07:21:31.922Z,59.23
2022-08-10T07:23:27.112Z,60.14
2022-08-10T07:23:57.350Z,60.71
2022-08-10T07:24:32.869Z,58.91
2022-08-10T07:25:31.861Z,58.91
2022-08-10T07:26:31.879Z,59.00
2022-08-10T07:27:39.120Z,59.53
2022-08-10T07:28:32.832Z,58.78
2022-08-10T07:29:53.233Z,59.18
2022-08-10T07:30:32.837Z,58.70
2022-08-10T07:31:55.686Z,59.50
2022-08-10T07:32:58.403Z,59.70
2022-08-10T07:33:31.801Z,60.28
2022-08-10T07:34:31.795Z,58.87
2022-08-10T07:35:37.022Z,59.58
2022-08-10T07:36:33.807Z,59.08
2022-08-10T07:37:31.770Z,59.52
2022-08-10T07:38:31.773Z,58.85
2022-08-10T07:39:57.897Z,58.78
2022-08-10T07:40:32.786Z,59.38
2022-08-10T07:41:31.772Z,58.78
2022-08-10T07:42:31.734Z,59.88
2022-08-10T07:43:31.724Z,59.48
2022-08-10T07:44:31.714Z,59.02
2022-08-10T07:45:31.705Z,59.62
2022-08-10T07:46:31.731Z,57.69
2022-08-10T07:47:53.780Z,58.19
2022-08-10T07:48:32.672Z,58.69
2022-08-10T07:49:32.669Z,58.59
2022-08-10T07:50:35.335Z,58.02
2022-08-10T07:51:31.686Z,57.69
2022-08-10T07:52:31.744Z,57.59
2022-08-10T07:53:31.651Z,58.59
2022-08-10T07:54:31.640Z,57.69
2022-08-10T07:56:01.597Z,58.06
2022-08-10T07:56:48.583Z,58.39
2022-08-10T07:57:36.871Z,57.50
2022-08-10T07:58:33.605Z,58.29
2022-08-10T07:59:31.610Z,57.67
2022-08-10T08:00:31.604Z,57.84
2022-08-10T08:01:31.777Z,57.01
2022-08-10T08:02:31.609Z,56.61
2022-08-10T08:03:31.576Z,57.04
2022-08-10T08:04:31.567Z,57.34
2022-08-10T08:05:59.180Z,57.93
2022-08-10T08:06:32.550Z,57.17
2022-08-10T08:07:31.578Z,58.26
2022-08-10T08:08:31.536Z,57.93
2022-08-10T08:09:31.534Z,56.71
2022-08-10T08:10:31.519Z,56.61
2022-08-10T08:11:31.509Z,56.31
2022-08-10T08:12:36.645Z,56.81
2022-08-10T08:13:33.495Z,57.01
2022-08-10T08:14:31.504Z,56.29
2022-08-10T08:16:20.344Z,55.49
2022-08-10T08:16:32.482Z,55.16
2022-08-10T08:17:36.461Z,55.39
2022-08-10T08:18:32.459Z,56.21
2022-08-10T08:19:37.851Z,56.66
2022-08-10T08:20:32.446Z,55.24
2022-08-10T08:24:05.726Z,55.21
2022-08-10T08:24:08.092Z,54.81
2022-08-10T08:24:14.654Z,55.24
2022-08-10T08:24:34.193Z,53.71
2022-08-10T08:25:31.414Z,53.81
2022-08-10T08:26:31.427Z,54.91
2022-08-10T08:27:31.397Z,55.04
2022-08-10T08:28:31.380Z,54.86
2022-08-10T08:29:31.382Z,55.54
2022-08-10T08:30:31.371Z,55.24
2022-08-10T08:31:31.411Z,55.04
2022-08-10T08:32:31.357Z,55.73
2022-08-10T08:33:41.368Z,54.81
2022-08-10T08:34:32.366Z,54.64
2022-08-10T08:35:31.337Z,54.88
2022-08-10T08:36:31.331Z,52.76
2022-08-10T08:38:30.289Z,51.67
2022-08-10T08:38:34.938Z,52.07
2022-08-10T08:39:31.361Z,52.86
2022-08-10T08:40:31.298Z,52.74
2022-08-10T08:41:31.295Z,53.24
2022-08-10T08:42:31.317Z,52.51
2022-08-10T08:43:31.790Z,51.42
2022-08-10T08:44:34.908Z,51.54
2022-08-10T08:45:32.268Z,51.42
2022-08-10T08:46:31.259Z,50.85
2022-08-10T08:48:03.009Z,51.35
2022-08-10T08:48:32.238Z,51.03
2022-08-10T08:50:08.176Z,50.40
2022-08-10T08:50:32.228Z,50.52
2022-08-10T08:52:07.181Z,51.32
2022-08-10T08:52:32.311Z,50.82
2022-08-10T08:54:01.629Z,50.35
2022-08-10T08:54:32.975Z,51.54
2022-08-10T08:56:04.945Z,50.82
2022-08-10T08:56:32.183Z,50.33
2022-08-10T08:57:49.339Z,50.43
2022-08-10T08:58:32.193Z,50.60
2022-08-10T08:59:31.173Z,49.91
2022-08-10T09:00:31.150Z,50.23
2022-08-10T09:01:40.483Z,50.52
2022-08-10T09:02:32.142Z,50.80
2022-08-10T09:03:31.157Z,48.19
2022-08-10T09:04:31.184Z,48.19
2022-08-10T09:05:31.123Z,47.99
2022-08-10T09:06:32.118Z,47.30
2022-08-10T09:07:59.758Z,49.26
2022-08-10T09:08:32.086Z,49.16
2022-08-10T09:09:31.089Z,49.41
2022-08-10T09:10:35.421Z,49.68
2022-08-10T09:11:33.074Z,49.68
2022-08-10T09:12:31.060Z,47.65
2022-08-10T09:13:31.066Z,46.76
2022-08-10T09:14:31.075Z,46.46
2022-08-10T09:15:39.762Z,45.05
2022-08-10T09:16:32.030Z,45.52
2022-08-10T09:17:31.025Z,46.02
2022-08-10T09:18:31.025Z,45.86
2022-08-10T09:19:36.383Z,46.48
2022-08-10T09:20:31.995Z,46.24
2022-08-10T09:21:31.001Z,44.73
2022-08-10T09:22:30.992Z,45.25
2022-08-10T09:24:04.372Z,43.96
2022-08-10T09:24:32.005Z,44.25
2022-08-10T09:25:30.961Z,43.56
2022-08-10T09:26:30.955Z,44.13
2022-08-10T09:27:30.946Z,42.72
2022-08-10T09:28:30.937Z,42.92
2022-08-10T09:29:30.956Z,44.11
2022-08-10T09:30:32.333Z,42.11
2022-08-10T09:31:31.925Z,42.43
2022-08-10T09:36:13.235Z,41.63
2022-08-10T09:36:21.064Z,41.73
2022-08-10T09:36:23.158Z,42.45
2022-08-10T09:36:26.175Z,41.14
2022-08-10T09:36:33.050Z,42.86
2022-08-10T09:37:40.077Z,43.14
2022-08-10T09:38:32.871Z,43.04
2022-08-10T09:40:06.938Z,43.66
2022-08-10T09:41:00.338Z,43.02
2022-08-10T09:41:31.865Z,42.82
2022-08-10T09:42:30.841Z,43.91
2022-08-10T09:43:30.834Z,43.74
2022-08-10T09:44:30.829Z,43.85
2022-08-10T09:45:30.841Z,44.25
2022-08-10T09:46:30.834Z,42.74
2022-08-10T09:47:58.518Z,42.72
2022-08-10T09:48:31.792Z,42.41
2022-08-10T09:49:53.956Z,42.71
2022-08-10T09:50:59.029Z,41.69
2022-08-10T09:51:45.231Z,41.60
2022-08-10T09:52:32.839Z,42.19
2022-08-10T09:53:30.764Z,41.61
2022-08-10T09:54:30.749Z,41.81
2022-08-10T09:56:16.995Z,41.20
2022-08-10T09:56:31.731Z,42.03
2022-08-10T09:57:55.101Z,41.93
2022-08-10T09:58:32.721Z,41.81
2022-08-10T10:00:01.386Z,41.20
2022-08-10T10:00:31.735Z,42.52
2022-08-10T10:02:03.018Z,41.73
2022-08-10T10:02:31.686Z,40.55
2022-08-10T10:03:30.715Z,41.14
2022-08-10T10:04:30.777Z,41.55
2022-08-10T10:05:30.694Z,41.66
2022-08-10T10:06:30.657Z,41.26
2022-08-10T10:07:30.672Z,41.36
2022-08-10T10:08:30.647Z,41.63
2022-08-10T10:09:30.672Z,40.62
2022-08-10T10:10:30.631Z,40.23
2022-08-10T10:11:30.627Z,40.94
2022-08-10T10:12:30.629Z,41.46
2022-08-10T10:13:49.960Z,42.15
2022-08-10T10:14:31.632Z,42.27
2022-08-10T10:15:30.602Z,42.11
2022-08-10T10:16:30.663Z,41.49
2022-08-10T10:17:30.580Z,42.01
2022-08-10T10:18:30.576Z,42.11
2022-08-10T10:19:30.593Z,41.53
2022-08-10T10:20:30.556Z,41.41
2022-08-10T10:21:55.067Z,41.20
2022-08-10T10:22:31.547Z,41.39
2022-08-10T10:23:30.533Z,41.65
2022-08-10T10:24:30.526Z,41.55
2022-08-10T10:25:50.267Z,40.86
2022-08-10T10:26:31.513Z,41.08
2022-08-10T10:27:30.512Z,41.39
2022-08-10T10:28:57.599Z,41.67
2022-08-10T10:29:57.291Z,41.67
2022-08-10T10:30:32.498Z,41.49
2022-08-10T10:31:30.477Z,41.38
2022-08-10T10:32:32.092Z,41.08
2022-08-10T10:33:31.469Z,41.39
2022-08-10T10:34:30.460Z,41.99
2022-08-10T10:35:30.486Z,41.61
2022-08-10T10:36:30.460Z,42.31
2022-08-10T10:38:00.277Z,41.49
2022-08-10T10:38:31.435Z,41.73
2022-08-10T10:39:30.511Z,42.23
2022-08-10T10:40:30.443Z,42.11
2022-08-10T10:41:30.409Z,42.01
2022-08-10T10:42:45.892Z,41.81
2022-08-10T10:43:32.392Z,40.60
2022-08-10T10:44:30.762Z,40.78
2022-08-10T10:45:30.413Z,39.77
2022-08-10T10:46:30.374Z,38.86
2022-08-10T10:47:30.372Z,38.86
2022-08-10T10:48:30.357Z,39.08
2022-08-10T10:49:30.360Z,39.79
2022-08-10T10:50:30.372Z,40.19
2022-08-10T10:51:30.338Z,40.31
2022-08-10T10:52:30.329Z,41.41
2022-08-10T10:53:30.345Z,41.31
2022-08-10T10:54:30.317Z,41.69
2022-08-10T10:55:30.339Z,41.30
2022-08-10T10:56:30.314Z,40.98
2022-08-10T10:57:59.534Z,40.70
2022-08-10T10:58:31.282Z,41.10
2022-08-10T10:59:54.594Z,41.20
2022-08-10T11:00:31.268Z,40.41
2022-08-10T11:01:30.341Z,41.00
2022-08-10T11:02:30.251Z,41.44
2022-08-10T11:03:30.252Z,40.72
2022-08-10T11:04:30.268Z,40.68
2022-08-10T11:05:30.237Z,41.53
2022-08-10T11:06:39.867Z,38.78
2022-08-10T11:07:33.743Z,38.01
2022-08-10T11:08:31.224Z,39.37
2022-08-10T11:10:03.535Z,38.19
2022-08-10T11:10:32.490Z,39.10
2022-08-10T11:12:01.510Z,39.10
2022-08-10T11:12:31.181Z,39.58
2022-08-10T11:14:26.704Z,39.50
2022-08-10T11:14:31.228Z,40.29
2022-08-10T11:15:30.176Z,40.09
2022-08-10T11:16:30.155Z,38.96
2022-08-10T11:17:30.159Z,39.04
2022-08-10T11:18:30.139Z,37.66
2022-08-10T11:20:01.722Z,37.46
2022-08-10T11:20:31.120Z,37.98
2022-08-10T11:21:30.122Z,37.46
2022-08-10T11:22:30.109Z,37.00
2022-08-10T11:23:31.095Z,37.02
2022-08-10T11:24:48.539Z,37.73
2022-08-10T11:25:31.107Z,37.63
2022-08-10T11:26:30.076Z,37.12
2022-08-10T11:27:30.067Z,36.72
2022-08-10T11:28:30.068Z,36.69
2022-08-10T11:29:30.054Z,38.19
2022-08-10T11:30:30.068Z,38.29
2022-08-10T11:31:30.035Z,38.57
2022-08-10T11:32:31.033Z,38.09
2022-08-10T11:33:32.584Z,35.61
2022-08-10T11:34:48.423Z,38.09
2022-08-10T11:35:34.753Z,37.48
2022-08-10T11:36:31.015Z,37.30
2022-08-10T11:37:30.001Z,38.07
2022-08-10T11:38:42.890Z,37.56
2022-08-10T11:39:31.001Z,37.60
2022-08-10T11:40:30.001Z,38.37
2022-08-10T11:42:12.078Z,36.95
2022-08-10T11:42:35.677Z,36.97
2022-08-10T11:43:31.954Z,36.90
2022-08-10T11:44:29.944Z,38.03
2022-08-10T11:45:29.965Z,38.03
2022-08-10T11:46:29.970Z,37.02
2022-08-10T11:47:29.927Z,37.49
2022-08-10T11:48:53.853Z,35.40
2022-08-10T11:49:30.906Z,35.70
2022-08-10T11:50:29.928Z,35.91
2022-08-10T11:51:29.895Z,36.41
2022-08-10T11:52:29.895Z,35.78
2022-08-10T11:53:35.217Z,35.68
2022-08-10T11:54:30.876Z,36.18
2022-08-10T11:55:29.890Z,35.38
2022-08-10T11:56:29.863Z,35.11
2022-08-10T11:57:54.757Z,34.99
2022-08-10T11:58:30.840Z,34.79
2022-08-10T11:59:29.836Z,33.89
2022-08-10T12:00:32.716Z,33.89
2022-08-10T12:01:29.825Z,33.89
2022-08-10T12:02:29.863Z,35.45
2022-08-10T12:03:34.409Z,35.55
2022-08-10T12:04:31.790Z,35.05
2022-08-10T12:05:52.141Z,35.96
2022-08-10T12:06:54.286Z,34.18
2022-08-10T12:10:04.278Z,33.82
2022-08-10T12:10:06.755Z,34.39
2022-08-10T12:10:10.883Z,33.70
2022-08-10T12:10:30.793Z,34.48
2022-08-10T12:11:29.745Z,33.58
2022-08-10T12:12:29.735Z,34.38
2022-08-10T12:13:29.739Z,34.22
2022-08-10T12:14:29.749Z,37.08
2022-08-10T12:15:29.732Z,37.00
2022-08-10T12:16:29.705Z,37.71
2022-08-10T12:17:29.700Z,37.73
2022-08-10T12:18:29.690Z,37.62
2022-08-10T12:19:29.712Z,37.00
2022-08-10T12:20:30.686Z,37.10
2022-08-10T12:21:29.671Z,37.49
2022-08-10T12:22:29.687Z,37.41
2022-08-10T12:23:29.657Z,37.34
2022-08-10T12:24:29.684Z,37.34
2022-08-10T12:25:56.254Z,35.06
2022-08-10T12:26:30.634Z,35.75
2022-08-10T12:27:29.630Z,35.82
2022-08-10T12:28:51.351Z,34.89
2022-08-10T12:29:30.637Z,34.28
2022-08-10T12:30:30.606Z,33.87
2022-08-10T12:31:29.597Z,32.80
2022-08-10T12:32:29.594Z,33.87
2022-08-10T12:33:29.591Z,33.47
2022-08-10T12:34:29.572Z,33.36
2022-08-10T12:35:29.590Z,31.86
2022-08-10T12:36:29.558Z,31.99
2022-08-10T12:37:29.564Z,32.19
2022-08-10T12:38:29.554Z,32.59
2022-08-10T12:39:29.606Z,32.67
2022-08-10T12:40:35.566Z,32.21
2022-08-10T12:41:44.993Z,33.70
2022-08-10T12:42:36.920Z,32.81
2022-08-10T12:44:06.299Z,31.81
2022-08-10T12:44:42.224Z,30.91
2022-08-10T12:45:30.536Z,32.10
2022-08-10T12:46:29.486Z,34.18
2022-08-10T12:47:29.477Z,35.50
2022-08-10T12:48:31.316Z,35.38
2022-08-10T12:49:29.469Z,34.89
2022-08-10T12:50:33.321Z,35.89
2022-08-10T12:51:29.457Z,36.21
2022-08-10T12:52:29.450Z,36.18